Nearby METAR Reports

 

EGAA - Belfast International Airport
Distance from station: W 19.6km
Updated: 20/01/2019 12:50
Partly cloudy
Partly cloudy
 Wind from NNW
Wind: NNW 19 km/h
Temperature: 6°C
Wind Chill: 3°C
Dew Point: 3°C
Humidity: 81%
Barometer: 1021 hPa
Clouds: Partly cloudy
Visibility: 10 km
Cloud details: Partly cloudy 1128 m
Partly cloudy 1372 m
2019/01/20 12:50 EGAA 201250Z 33010KT 9999 SCT037 SCT045 06/03 Q1021
EGAC - George Best Belfast City Airport
Distance from station: SE 6.4km
Updated: 20/01/2019 12:50
Few Clouds
Few Clouds
 Wind from NNW
Wind: NNW 13 km/h
Temperature: 7°C
Wind Chill: 5°C
Dew Point: 4°C
Humidity: 81%
Barometer: 1021 hPa
Clouds: Few Clouds
Visibility: 10 km
Cloud details: Few Clouds 1341 m
2019/01/20 12:50 EGAC 201250Z AUTO 34007KT 320V020 9999 FEW044/// 07/04 Q1021